Time;durP1;ratioP1;P1;durP2;ratioP2;P2;SDS_P1;SDS_P2;PMS_P1;PMS_P2;Temp;Humidity;BMP_temperature;BMP_pressure;BME280_temperature;BME280_humidity;BME280_pressure;Samples;Min_cycle;Max_cycle;Signal;HPM_P1;HPM_P2
2021/12/27 00:01:14;;;;;;;28.55;15.70;;;8.10;99.90;;;;;;5055883;28;20037;-81
2021/12/27 00:03:43;;;;;;;17.98;10.15;;;8.10;99.90;;;;;;5054915;28;20017;-81
2021/12/27 00:06:09;;;;;;;35.47;16.83;;;8.60;99.90;;;;;;5054254;28;20372;-81
2021/12/27 00:08:39;;;;;;;20.90;10.93;;;8.50;99.90;;;;;;5054351;28;20040;-81
2021/12/27 00:11:33;;;;;;;19.70;11.52;;;8.20;99.90;;;;;;5057377;28;20400;-82
2021/12/27 00:13:58;;;;;;;47.35;24.52;;;8.70;99.90;;;;;;5051424;28;20056;-81
2021/12/27 00:16:27;;;;;;;27.40;14.00;;;8.30;99.90;;;;;;5059512;28;20017;-81
2021/12/27 00:18:54;;;;;;;19.50;11.02;;;10.20;99.90;;;;;;5056683;28;20025;-81
2021/12/27 00:21:46;;;;;;;16.15;9.88;;;8.70;99.90;;;;;;5058453;28;20021;-81
2021/12/27 00:24:24;;;;;;;20.95;11.38;;;8.30;99.90;;;;;;5058991;28;20028;-82
2021/12/27 00:27:06;;;;;;;25.92;14.95;;;8.60;99.90;;;;;;5055897;28;20025;-81
2021/12/27 00:29:32;;;;;;;69.10;37.50;;;8.40;99.90;;;;;;5055325;28;20028;-81
2021/12/27 00:32:00;;;;;;;45.58;24.20;;;8.60;99.90;;;;;;5061775;28;20020;-80
2021/12/27 00:34:30;;;;;;;12.35;7.13;;;8.40;99.90;;;;;;5055786;28;20116;-81
2021/12/27 00:36:58;;;;;;;13.02;7.55;;;8.40;99.90;;;;;;5062393;28;20043;-82
2021/12/27 00:39:26;;;;;;;13.65;7.18;;;8.30;99.90;;;;;;5060424;28;20029;-82
2021/12/27 00:41:52;;;;;;;12.48;7.70;;;8.50;99.90;;;;;;5060495;28;20041;-81
2021/12/27 00:44:18;;;;;;;14.43;9.35;;;7.00;99.90;;;;;;5053244;28;20039;-81
2021/12/27 00:46:44;;;;;;;13.13;8.63;;;8.30;99.90;;;;;;5058574;28;20079;-81
2021/12/27 00:49:09;;;;;;;16.35;8.70;;;8.30;99.90;;;;;;5058960;28;20033;-81
2021/12/27 00:51:35;;;;;;;13.10;7.35;;;8.30;99.90;;;;;;5056550;28;20328;-81
2021/12/27 00:54:02;;;;;;;14.20;8.55;;;8.20;99.90;;;;;;5053709;28;20029;-81
2021/12/27 00:56:30;;;;;;;13.88;7.40;;;8.50;99.90;;;;;;5056280;28;20095;-82
2021/12/27 00:58:57;;;;;;;19.65;11.38;;;8.30;99.90;;;;;;5065855;28;20028;-82
2021/12/27 01:01:23;;;;;;;11.25;6.00;;;8.40;99.90;;;;;;5060438;28;20564;-81
2021/12/27 01:03:51;;;;;;;11.68;6.05;;;11.60;99.90;;;;;;5062144;28;20041;-82
2021/12/27 01:06:16;;;;;;;10.07;6.07;;;8.70;99.90;;;;;;5067335;28;20028;-81
2021/12/27 01:08:46;;;;;;;11.85;7.22;;;7.20;99.90;;;;;;5062267;28;20275;-82
2021/12/27 01:11:28;;;;;;;13.43;7.30;;;9.10;99.90;;;;;;5059168;28;20089;-82
2021/12/27 01:14:04;;;;;;;10.85;7.00;;;8.40;99.90;;;;;;5067590;28;20039;-82
2021/12/27 01:16:32;;;;;;;13.82;6.97;;;8.40;99.90;;;;;;5064141;28;20029;-80
2021/12/27 01:18:58;;;;;;;9.70;6.57;;;8.30;99.90;;;;;;5066813;28;20027;-80
2021/12/27 01:21:24;;;;;;;10.98;6.95;;;11.40;99.90;;;;;;5066009;28;20013;-82
2021/12/27 01:23:53;;;;;;;13.05;7.38;;;8.40;99.90;;;;;;5068526;28;20036;-80
2021/12/27 01:26:25;;;;;;;12.77;6.43;;;8.40;99.90;;;;;;5066133;28;20025;-81
2021/12/27 01:28:52;;;;;;;14.75;8.07;;;8.80;99.90;;;;;;5063716;28;20036;-82
2021/12/27 01:31:28;;;;;;;14.52;9.43;;;8.50;99.90;;;;;;5065070;28;20033;-83
2021/12/27 01:34:04;;;;;;;13.70;8.32;;;10.00;99.90;;;;;;5060105;28;20084;-83
2021/12/27 01:39:24;;;;;;;14.73;8.63;;;8.30;99.90;;;;;;5013549;28;20034;-81
2021/12/27 01:41:50;;;;;;;21.08;11.40;;;8.50;99.90;;;;;;5039851;28;20022;-82
2021/12/27 01:44:16;;;;;;;10.63;6.05;;;8.50;99.90;;;;;;5035976;28;20033;-82
2021/12/27 01:46:42;;;;;;;9.60;5.13;;;8.20;99.90;;;;;;5035383;28;20025;-83
2021/12/27 01:49:08;;;;;;;9.40;5.57;;;8.40;99.90;;;;;;5033932;28;20029;-82
2021/12/27 01:51:39;;;;;;;13.38;7.32;;;8.20;99.90;;;;;;5041551;28;20049;-82
2021/12/27 01:54:06;;;;;;;12.13;7.38;;;8.60;99.90;;;;;;5018433;28;20017;-82
2021/12/27 01:56:32;;;;;;;9.38;6.05;;;7.40;99.90;;;;;;5037049;28;20049;-82
2021/12/27 01:58:58;;;;;;;16.90;10.55;;;8.30;99.90;;;;;;5004220;28;20038;-80
2021/12/27 02:01:29;;;;;;;9.90;5.85;;;8.20;99.90;;;;;;5035948;28;20026;-82
2021/12/27 02:03:56;;;;;;;8.55;4.93;;;7.30;99.90;;;;;;5015311;28;20034;-81
2021/12/27 02:06:22;;;;;;;8.43;4.82;;;8.30;99.90;;;;;;5040296;28;20044;-82
2021/12/27 02:08:51;;;;;;;9.70;5.50;;;6.90;99.90;;;;;;5025847;28;20396;-81
2021/12/27 02:11:24;;;;;;;12.90;6.07;;;8.70;99.90;;;;;;5039676;28;20487;-82
2021/12/27 02:13:50;;;;;;;12.30;6.88;;;9.40;99.90;;;;;;5038107;28;20029;-82
2021/12/27 02:16:19;;;;;;;23.27;15.55;;;10.30;99.90;;;;;;5048507;28;20041;-80
2021/12/27 02:18:45;;;;;;;59.10;28.92;;;8.30;99.90;;;;;;5041824;28;20186;-82
2021/12/27 02:21:16;;;;;;;28.48;16.33;;;8.20;99.90;;;;;;5062068;28;20064;-81
2021/12/27 02:23:59;;;;;;;;;;;8.30;99.90;;;;;;5063098;28;20048;-80
2021/12/27 02:26:25;;;;;;;8.10;5.20;;;8.50;99.90;;;;;;5053738;28;20052;-82
2021/12/27 02:28:51;;;;;;;8.13;4.05;;;8.50;99.90;;;;;;5053440;28;20048;-82
2021/12/27 02:31:17;;;;;;;8.73;4.15;;;8.90;99.90;;;;;;5055979;28;20052;-82
2021/12/27 02:33:44;;;;;;;4.82;3.28;;;8.30;99.90;;;;;;5063950;28;20201;-82
2021/12/27 02:36:11;;;;;;;4.78;2.90;;;8.90;99.90;;;;;;5067415;28;20072;-82
2021/12/27 02:38:40;;;;;;;3.92;2.40;;;8.40;99.90;;;;;;5067298;28;20024;-81
2021/12/27 02:41:08;;;;;;;5.45;2.80;;;8.40;99.90;;;;;;5065467;28;20515;-82
2021/12/27 02:43:59;;;;;;;4.30;2.60;;;8.30;99.90;;;;;;5054333;28;20061;-82
2021/12/27 02:46:27;;;;;;;6.22;3.10;;;8.10;99.90;;;;;;5017966;28;20403;-82
2021/12/27 02:48:54;;;;;;;6.03;3.25;;;7.30;99.90;;;;;;5021444;28;20517;-82
2021/12/27 02:51:21;;;;;;;3.88;2.45;;;8.50;99.90;;;;;;5035617;28;20104;-82
2021/12/27 02:53:49;;;;;;;4.93;2.88;;;8.60;99.90;;;;;;5036543;28;20033;-82
2021/12/27 02:56:17;;;;;;;5.68;4.03;;;7.40;99.90;;;;;;5043618;28;20048;-82
2021/12/27 02:58:43;;;;;;;9.85;6.53;;;8.30;99.90;;;;;;5025751;28;20111;-82
2021/12/27 03:01:20;;;;;;;5.95;4.05;;;6.30;99.90;;;;;;5038658;28;20038;-82
2021/12/27 03:03:46;;;;;;;9.60;5.15;;;8.00;99.90;;;;;;5035910;28;20075;-82
2021/12/27 03:06:12;;;;;;;9.48;5.05;;;8.70;99.90;;;;;;5034598;28;20041;-82
2021/12/27 03:08:51;;;;;;;13.02;6.60;;;7.50;99.90;;;;;;5045414;28;20066;-82
2021/12/27 03:11:18;;;;;;;5.03;3.35;;;8.00;99.90;;;;;;5038785;28;20265;-82
2021/12/27 03:13:46;;;;;;;4.53;2.65;;;8.60;99.90;;;;;;5038746;28;20021;-82
2021/12/27 03:16:16;;;;;;;5.28;2.50;;;7.20;99.90;;;;;;5038856;28;20108;-81
2021/12/27 03:18:44;;;;;;;3.75;2.33;;;8.40;99.90;;;;;;5028041;28;20033;-83
2021/12/27 03:21:17;;;;;;;4.00;2.42;;;8.10;99.90;;;;;;5039210;28;20033;-82
2021/12/27 03:23:46;;;;;;;4.95;3.28;;;8.00;99.90;;;;;;5033650;28;20095;-82
2021/12/27 03:26:13;;;;;;;3.60;2.25;;;8.80;99.90;;;;;;5024586;28;20040;-82
2021/12/27 03:28:41;;;;;;;4.07;2.30;;;8.20;99.90;;;;;;5029738;28;20347;-82
2021/12/27 03:31:15;;;;;;;4.78;2.22;;;7.90;99.90;;;;;;5055450;28;20084;-82
2021/12/27 03:33:41;;;;;;;5.13;3.15;;;7.90;99.90;;;;;;5056548;28;20032;-82
2021/12/27 03:36:09;;;;;;;7.18;3.83;;;9.70;99.90;;;;;;5057915;28;20041;-81
2021/12/27 03:38:43;;;;;;;6.13;4.13;;;8.00;99.90;;;;;;5054043;28;20438;-82
2021/12/27 03:41:21;;;;;;;6.70;4.15;;;7.90;99.90;;;;;;5052385;28;20093;-81
2021/12/27 03:44:17;;;;;;;6.07;3.08;;;7.80;99.90;;;;;;5053077;28;20546;-81
2021/12/27 03:46:43;;;;;;;5.40;2.90;;;7.90;99.90;;;;;;5056329;28;20021;-81
2021/12/27 03:49:09;;;;;;;6.22;3.40;;;7.90;99.90;;;;;;5054223;28;20392;-82
2021/12/27 03:51:35;;;;;;;4.60;3.25;;;9.40;99.90;;;;;;5054145;28;20268;-82
2021/12/27 03:54:04;;;;;;;4.07;2.58;;;8.00;99.90;;;;;;5058510;28;20021;-80
2021/12/27 03:56:30;;;;;;;10.98;6.32;;;8.20;99.90;;;;;;5057988;28;20045;-81
2021/12/27 03:59:07;;;;;;;16.42;9.27;;;8.40;99.90;;;;;;5056747;28;20036;-81
2021/12/27 04:01:34;;;;;;;13.90;6.20;;;8.00;99.90;;;;;;5066087;28;20052;-81
2021/12/27 04:04:00;;;;;;;7.43;3.15;;;8.80;99.90;;;;;;5063795;28;20055;-80
2021/12/27 04:06:28;;;;;;;4.95;2.92;;;8.00;99.90;;;;;;5062232;28;20041;-81
2021/12/27 04:08:54;;;;;;;5.30;3.20;;;8.00;99.90;;;;;;5044408;28;20087;-82
2021/12/27 04:11:21;;;;;;;6.38;3.42;;;8.20;99.90;;;;;;5067352;28;20017;-81
2021/12/27 04:13:48;;;;;;;6.40;3.05;;;8.60;99.90;;;;;;5045209;28;20411;-80
2021/12/27 04:16:16;;;;;;;7.22;3.88;;;8.40;99.90;;;;;;5065054;28;20021;-80
2021/12/27 04:18:44;;;;;;;7.07;4.50;;;8.20;99.90;;;;;;5069462;28;20114;-81
2021/12/27 04:21:11;;;;;;;6.57;4.40;;;8.00;99.90;;;;;;5067932;28;20048;-82
2021/12/27 04:23:37;;;;;;;6.28;4.40;;;8.00;99.90;;;;;;5068922;28;20029;-80
2021/12/27 04:26:03;;;;;;;6.55;3.97;;;8.00;99.90;;;;;;5068914;28;20032;-82
2021/12/27 04:28:32;;;;;;;6.35;3.60;;;8.00;99.90;;;;;;5064541;28;20100;-81
2021/12/27 04:30:58;;;;;;;5.70;2.78;;;8.00;99.90;;;;;;5062846;28;20543;-81
2021/12/27 04:33:24;;;;;;;6.30;2.88;;;7.80;99.90;;;;;;5055092;28;20028;-81
2021/12/27 04:35:50;;;;;;;4.63;2.63;;;7.90;99.90;;;;;;5054344;28;20017;-80
2021/12/27 04:38:15;;;;;;;4.97;2.65;;;7.90;99.90;;;;;;5054300;28;20052;-80
2021/12/27 04:40:45;;;;;;;6.70;2.92;;;8.00;99.90;;;;;;5057185;28;20326;-80
2021/12/27 04:43:21;;;;;;;5.22;2.80;;;7.90;99.90;;;;;;5055222;28;20386;-81
2021/12/27 04:46:01;;;;;;;6.50;2.80;;;7.90;99.90;;;;;;5050659;28;20028;-82
2021/12/27 04:48:28;;;;;;;6.10;3.33;;;7.80;99.90;;;;;;5052297;28;20052;-80
2021/12/27 04:51:06;;;;;;;5.85;3.15;;;7.80;99.90;;;;;;5056214;28;20028;-80
2021/12/27 04:53:32;;;;;;;3.72;2.60;;;7.80;99.90;;;;;;5054884;28;20100;-80
2021/12/27 04:55:57;;;;;;;4.85;2.75;;;7.80;99.90;;;;;;5051801;28;20103;-81
2021/12/27 04:58:24;;;;;;;7.63;3.35;;;7.80;99.90;;;;;;5051920;28;20043;-81
2021/12/27 05:00:52;;;;;;;5.53;3.30;;;7.80;99.90;;;;;;5050779;28;20632;-80
2021/12/27 05:03:23;;;;;;;4.50;3.05;;;7.80;99.90;;;;;;5049791;28;20052;-81
2021/12/27 05:05:51;;;;;;;3.22;2.40;;;7.80;99.90;;;;;;5049789;28;20076;-80
2021/12/27 05:08:28;;;;;;;4.90;2.40;;;7.70;99.90;;;;;;5054622;28;20108;-80
2021/12/27 05:10:53;;;;;;;;;;;7.70;99.90;;;;;;5061296;28;20056;-81
2021/12/27 05:13:31;;;;;;;2.70;2.00;;;7.80;99.90;;;;;;5064088;28;19905;-79
2021/12/27 05:16:01;;;;;;;9.27;5.72;;;8.00;99.90;;;;;;5063825;28;20112;-80
2021/12/27 05:18:27;;;;;;;32.38;15.65;;;8.00;99.90;;;;;;5062999;28;20177;-80
2021/12/27 05:20:56;;;;;;;28.50;15.00;;;7.70;99.90;;;;;;5064256;28;20017;-81
2021/12/27 05:23:24;;;;;;;35.05;17.88;;;7.70;99.90;;;;;;5061507;28;20666;-80
2021/12/27 05:25:51;;;;;;;29.00;15.65;;;7.50;99.90;;;;;;5062372;28;20569;-82
2021/12/27 05:28:20;;;;;;;30.73;16.85;;;7.50;99.90;;;;;;5059819;28;20091;-81
2021/12/27 05:30:48;;;;;;;32.33;16.30;;;7.50;99.90;;;;;;5061730;28;20024;-82
2021/12/27 05:33:19;;;;;;;29.92;15.95;;;7.40;99.90;;;;;;5065839;28;20033;-80
2021/12/27 05:35:47;;;;;;;31.42;16.67;;;7.50;99.90;;;;;;5040813;28;20033;-82
2021/12/27 05:38:22;;;;;;;35.40;18.52;;;7.40;99.90;;;;;;5050707;28;20021;-81
2021/12/27 05:40:55;;;;;;;42.13;21.63;;;7.40;99.90;;;;;;5052215;28;20040;-82
2021/12/27 05:43:27;;;;;;;41.63;21.83;;;7.30;99.90;;;;;;5058288;28;20049;-82
2021/12/27 05:45:53;;;;;;;45.47;23.13;;;7.30;99.90;;;;;;5065238;28;20025;-81
2021/12/27 05:48:23;;;;;;;48.40;25.38;;;7.30;99.90;;;;;;5066188;28;20021;-82
2021/12/27 05:50:52;;;;;;;41.85;23.25;;;7.50;99.90;;;;;;5068340;28;20021;-80
2021/12/27 05:53:18;;;;;;;47.88;22.92;;;6.90;99.90;;;;;;5069710;28;20580;-80
2021/12/27 05:55:54;;;;;;;48.90;22.33;;;6.90;99.90;;;;;;5068205;28;20033;-80
2021/12/27 05:58:20;;;;;;;36.70;19.80;;;6.80;99.90;;;;;;5067914;28;20031;-82
2021/12/27 06:00:55;;;;;;;36.35;18.75;;;6.70;99.90;;;;;;5071242;28;20021;-82
2021/12/27 06:03:23;;;;;;;37.65;18.80;;;6.70;99.90;;;;;;5060716;28;20025;-82
2021/12/27 06:05:52;;;;;;;42.83;19.58;;;6.60;99.90;;;;;;5057651;28;20216;-83
2021/12/27 06:08:21;;;;;;;41.42;20.48;;;6.50;99.90;;;;;;5062726;28;20035;-82
2021/12/27 06:10:51;;;;;;;38.08;20.13;;;6.40;99.90;;;;;;5062241;28;20029;-81
2021/12/27 06:13:16;;;;;;;40.53;20.58;;;6.70;99.90;;;;;;5062496;28;20056;-81
2021/12/27 06:15:43;;;;;;;40.05;20.23;;;6.30;99.90;;;;;;5061433;28;20036;-81
2021/12/27 06:18:09;;;;;;;44.45;22.08;;;6.30;99.90;;;;;;5067222;28;20033;-80
2021/12/27 06:20:38;;;;;;;38.42;21.95;;;6.20;99.90;;;;;;5070255;28;20216;-80
2021/12/27 06:23:11;;;;;;;40.00;21.13;;;6.10;99.90;;;;;;5064503;28;20058;-81
2021/12/27 06:25:37;;;;;;;43.40;21.65;;;6.00;99.90;;;;;;5052060;28;20034;-80
2021/12/27 06:28:03;;;;;;;45.10;22.48;;;6.00;99.90;;;;;;5065140;28;20021;-80
2021/12/27 06:30:29;;;;;;;43.70;21.90;;;6.30;99.90;;;;;;5055682;28;20031;-80
2021/12/27 06:32:55;;;;;;;45.30;22.33;;;6.20;99.90;;;;;;5056641;28;20107;-82
2021/12/27 06:35:23;;;;;;;46.95;21.70;;;4.80;99.90;;;;;;5054864;28;20021;-82
2021/12/27 06:37:55;;;;;;;43.80;20.70;;;5.90;99.90;;;;;;5055114;28;20047;-81
2021/12/27 06:40:21;;;;;;;38.67;20.00;;;6.10;99.90;;;;;;5066919;28;20086;-81
2021/12/27 06:42:59;;;;;;;43.20;20.90;;;5.60;99.90;;;;;;5070871;28;20021;-80
2021/12/27 06:45:51;;;;;;;37.00;18.92;;;5.70;99.90;;;;;;5069347;28;20032;-80
2021/12/27 06:48:23;;;;;;;37.88;18.60;;;5.90;99.90;;;;;;5061722;28;20032;-81
2021/12/27 06:51:00;;;;;;;39.90;20.10;;;5.70;99.90;;;;;;5061729;28;20345;-81
2021/12/27 06:53:32;;;;;;;29.90;14.88;;;7.40;99.90;;;;;;5061169;28;20040;-81
2021/12/27 06:56:05;;;;;;;36.63;18.67;;;5.60;99.90;;;;;;5057875;28;20025;-80
2021/12/27 06:58:34;;;;;;;37.33;19.52;;;5.60;99.90;;;;;;5057413;28;20029;-80
2021/12/27 07:01:03;;;;;;;33.20;16.77;;;5.60;99.90;;;;;;5067792;28;20051;-81
2021/12/27 07:03:29;;;;;;;31.35;15.43;;;2.90;99.90;;;;;;5070791;28;20207;-82
2021/12/27 07:05:58;;;;;;;28.98;15.32;;;5.90;99.90;;;;;;5072889;28;20025;-81
2021/12/27 07:08:28;;;;;;;31.35;16.25;;;5.40;99.90;;;;;;5070425;28;20021;-81
2021/12/27 07:10:58;;;;;;;31.02;15.73;;;5.40;99.90;;;;;;5069820;28;20044;-80
2021/12/27 07:13:26;;;;;;;31.30;15.40;;;5.20;99.90;;;;;;5059376;28;20297;-81
2021/12/27 07:15:54;;;;;;;31.45;15.32;;;5.10;99.90;;;;;;5061543;28;20328;-80
2021/12/27 07:18:31;;;;;;;31.73;16.63;;;5.10;99.90;;;;;;5058012;28;20025;-80
2021/12/27 07:20:57;;;;;;;33.65;14.93;;;5.30;99.90;;;;;;5070441;28;20040;-81
2021/12/27 07:23:26;;;;;;;34.97;15.77;;;5.10;99.90;;;;;;5068053;28;20052;-79
2021/12/27 07:25:53;;;;;;;35.35;16.73;;;5.10;99.90;;;;;;5068810;28;20445;-80
2021/12/27 07:28:18;;;;;;;31.65;16.92;;;5.00;99.90;;;;;;5071966;28;20021;-81
2021/12/27 07:30:44;;;;;;;30.95;16.30;;;5.00;99.90;;;;;;5072389;28;20040;-83
2021/12/27 07:33:24;;;;;;;35.30;17.20;;;4.90;99.90;;;;;;5072868;28;20072;-81
2021/12/27 07:35:51;;;;;;;29.60;16.90;;;4.90;99.90;;;;;;5070233;28;20085;-81
2021/12/27 07:38:17;;;;;;;32.85;16.88;;;4.80;99.90;;;;;;5071137;28;20017;-81
2021/12/27 07:40:45;;;;;;;33.53;17.60;;;4.80;99.90;;;;;;5065313;28;20014;-82
2021/12/27 07:43:12;;;;;;;28.23;15.50;;;4.80;99.90;;;;;;5061631;28;20036;-79
2021/12/27 07:45:44;;;;;;;32.83;17.73;;;4.90;99.90;;;;;;5071970;28;20021;-80
2021/12/27 07:48:13;;;;;;;31.45;16.02;;;4.80;99.90;;;;;;5072164;28;20017;-80
2021/12/27 07:50:58;;;;;;;29.23;16.75;;;4.80;99.90;;;;;;5069698;28;20025;-80
2021/12/27 07:53:34;;;;;;;33.53;16.10;;;4.70;99.90;;;;;;5072251;28;20025;-77
2021/12/27 07:56:06;;;;;;;30.58;14.88;;;4.70;99.90;;;;;;5049964;28;20017;-81
2021/12/27 07:59:03;;;;;;;27.17;14.63;;;4.90;99.90;;;;;;5066841;28;20029;-80
2021/12/27 08:02:00;;;;;;;28.95;14.95;;;3.00;99.90;;;;;;5075053;28;20060;-79
2021/12/27 08:04:52;;;;;;;28.98;14.77;;;5.50;99.90;;;;;;5068073;28;20025;-79
2021/12/27 08:07:24;;;;;;;22.02;12.70;;;4.70;99.90;;;;;;5059745;28;20020;-80
2021/12/27 08:09:50;;;;;;;21.98;11.68;;;5.50;99.90;;;;;;5062044;28;20048;-80
2021/12/27 08:12:26;;;;;;;22.38;12.48;;;4.70;99.90;;;;;;5068732;28;20037;-81
2021/12/27 08:14:53;;;;;;;21.52;11.90;;;4.90;99.90;;;;;;5061972;28;20036;-82
2021/12/27 08:17:19;;;;;;;24.15;11.30;;;5.10;99.90;;;;;;5051759;28;20227;-80
2021/12/27 08:19:47;;;;;;;15.75;8.77;;;4.80;99.90;;;;;;5049070;28;20077;-80
2021/12/27 08:22:13;;;;;;;22.02;11.32;;;4.70;99.90;;;;;;5049761;28;20112;-81
2021/12/27 08:24:40;;;;;;;20.50;10.65;;;5.20;99.90;;;;;;5049704;28;20016;-79
2021/12/27 08:27:12;;;;;;;18.77;9.90;;;4.70;99.90;;;;;;5047975;28;20021;-80
2021/12/27 08:29:38;;;;;;;17.88;9.70;;;4.30;99.90;;;;;;5046892;28;20017;-79
2021/12/27 08:32:07;;;;;;;18.45;9.70;;;5.60;99.90;;;;;;5047303;28;20025;-81
2021/12/27 08:34:45;;;;;;;20.48;9.25;;;3.70;99.90;;;;;;5050130;28;20013;-80
2021/12/27 08:37:49;;;;;;;19.23;10.18;;;4.50;99.90;;;;;;5055619;28;20021;-79
2021/12/27 08:40:23;;;;;;;17.23;9.60;;;4.40;99.90;;;;;;5059334;28;20039;-80
2021/12/27 08:42:58;;;;;;;15.63;9.10;;;4.60;99.90;;;;;;5059936;28;20045;-80
2021/12/27 08:45:59;;;;;;;14.95;8.27;;;4.60;99.90;;;;;;5063737;28;20029;-80
2021/12/27 08:48:37;;;;;;;18.35;9.95;;;4.40;99.90;;;;;;5062317;28;20017;-80
2021/12/27 08:51:16;;;;;;;22.50;10.57;;;4.60;99.90;;;;;;5061943;28;20041;-81
2021/12/27 08:53:59;;;;;;;23.63;11.13;;;4.10;99.90;;;;;;5034763;28;20815;-81
2021/12/27 08:56:36;;;;;;;23.95;11.93;;;4.80;99.90;;;;;;5052798;28;20090;-83
2021/12/27 08:59:43;;;;;;;21.55;11.13;;;3.30;99.90;;;;;;5059461;28;20032;-83
2021/12/27 09:09:46;;;;;;;22.33;11.75;;;3.40;99.90;;;;;;4868756;29;20174;-82
2021/12/27 09:12:24;;;;;;;25.52;12.50;;;5.30;99.90;;;;;;4867182;29;20070;-80
2021/12/27 09:15:14;;;;;;;24.05;12.07;;;4.30;99.90;;;;;;4878908;29;20197;-81
2021/12/27 09:18:11;;;;;;;25.42;12.25;;;4.40;99.90;;;;;;4868022;29;20018;-82
2021/12/27 09:20:47;;;;;;;24.55;12.07;;;1.60;99.90;;;;;;4854704;29;20058;-81
2021/12/27 09:23:15;;;;;;;26.03;13.13;;;4.40;99.90;;;;;;4875255;29;20040;-81
2021/12/27 09:25:55;;;;;;;23.55;12.52;;;4.80;99.90;;;;;;4877502;29;20290;-80
2021/12/27 09:28:30;;;;;;;24.35;13.43;;;4.70;99.90;;;;;;4845608;29;20097;-81
2021/12/27 09:31:04;;;;;;;23.98;13.68;;;5.50;99.90;;;;;;4917404;29;20087;-80
2021/12/27 09:33:58;;;;;;;29.33;16.08;;;4.80;99.90;;;;;;4939945;29;20043;-80
2021/12/27 09:37:17;;;;;;;28.50;14.68;;;4.70;99.90;;;;;;4971542;29;20043;-82
2021/12/27 09:39:53;;;;;;;21.92;13.20;;;7.10;99.90;;;;;;4928717;29;20039;-81
2021/12/27 09:43:03;;;;;;;25.10;13.02;;;4.90;99.90;;;;;;4981012;28;20038;-80
2021/12/27 09:46:11;;;;;;;23.85;13.57;;;4.30;99.90;;;;;;5005107;28;20031;-81
2021/12/27 09:49:10;;;;;;;25.10;13.77;;;4.40;99.90;;;;;;4988923;28;20031;-80
2021/12/27 09:51:51;;;;;;;24.15;14.38;;;4.50;99.90;;;;;;4990519;28;20270;-80
2021/12/27 09:54:22;;;;;;;27.13;14.10;;;4.50;99.90;;;;;;5011430;28;20085;-82
2021/12/27 09:56:48;;;;;;;27.88;14.73;;;5.30;99.90;;;;;;5007490;28;20061;-82
2021/12/27 09:59:16;;;;;;;24.92;14.30;;;7.30;99.90;;;;;;5002597;28;20022;-81
2021/12/27 10:02:00;;;;;;;27.63;14.75;;;4.70;99.90;;;;;;4993317;28;20064;-80
2021/12/27 10:05:21;;;;;;;20.10;11.38;;;5.00;99.90;;;;;;4995467;28;20034;-83
2021/12/27 10:08:00;;;;;;;20.17;11.33;;;5.00;99.90;;;;;;4899447;29;20045;-80
2021/12/27 10:10:57;;;;;;;24.90;14.00;;;5.60;99.90;;;;;;4889190;29;20066;-82
2021/12/27 10:13:50;;;;;;;29.33;16.73;;;5.60;99.90;;;;;;4915682;29;20105;-81
2021/12/27 10:16:29;;;;;;;29.73;16.27;;;5.00;99.90;;;;;;4897627;29;20033;-82
2021/12/27 10:19:20;;;;;;;29.73;16.17;;;3.40;99.90;;;;;;4894246;29;20035;-83
2021/12/27 10:21:49;;;;;;;24.05;13.77;;;5.30;99.90;;;;;;4888881;29;20028;-83
2021/12/27 10:24:27;;;;;;;24.20;14.20;;;5.70;99.90;;;;;;4900025;29;20060;-81
2021/12/27 10:26:58;;;;;;;25.02;14.45;;;5.50;99.90;;;;;;4900666;29;20025;-80
2021/12/27 10:29:33;;;;;;;23.67;14.40;;;4.70;99.90;;;;;;4897368;29;20080;-82
2021/12/27 10:32:28;;;;;;;23.38;13.38;;;5.20;99.90;;;;;;4896305;29;20039;-82
2021/12/27 10:35:09;;;;;;;21.92;11.90;;;6.00;99.90;;;;;;4892271;29;20028;-83
2021/12/27 10:37:42;;;;;;;15.95;8.77;;;5.70;99.90;;;;;;4897231;29;20063;-83
2021/12/27 10:40:35;;;;;;;15.48;9.20;;;5.50;99.90;;;;;;4902117;29;20105;-83
2021/12/27 10:43:09;;;;;;;17.42;9.77;;;4.80;99.90;;;;;;4894668;29;20033;-79
2021/12/27 10:45:37;;;;;;;24.77;12.05;;;5.90;99.90;;;;;;5008822;28;20076;-80
2021/12/27 10:48:22;;;;;;;17.65;8.93;;;6.00;99.90;;;;;;5024257;28;20045;-81
2021/12/27 10:50:49;;;;;;;18.25;11.38;;;4.60;99.90;;;;;;5024737;28;20014;-79
2021/12/27 10:53:15;;;;;;;19.25;11.18;;;6.10;99.90;;;;;;5026158;28;20022;-79
2021/12/27 10:56:01;;;;;;;21.67;12.45;;;3.80;99.90;;;;;;5018684;28;20263;-79
2021/12/27 10:58:37;;;;;;;;;;;5.90;99.90;;;;;;5008098;28;20103;-82
2021/12/27 11:01:19;;;;;;;21.80;11.65;;;5.60;99.90;;;;;;4993542;28;19912;-83
2021/12/27 11:04:04;;;;;;;;;;;;;;;;;;;;;
2021/12/27 11:06:49;;;;;;;22.60;13.43;;;3.90;99.90;;;;;;5066176;28;20056;-80
2021/12/27 11:09:26;;;;;;;17.48;10.48;;;2.50;99.50;;;;;;5060375;28;20044;-83
2021/12/27 11:12:14;;;;;;;19.80;10.20;;;5.50;99.90;;;;;;5074215;28;20004;-83
2021/12/27 11:14:48;;;;;;;19.83;11.00;;;5.50;99.90;;;;;;5073629;28;20109;-80
2021/12/27 11:17:45;;;;;;;29.23;14.68;;;4.70;99.90;;;;;;5050186;28;20025;-80
2021/12/27 11:20:47;;;;;;;;;;;;;;;;;;;;;
2021/12/27 11:23:45;;;;;;;53.90;23.65;;;5.70;99.60;;;;;;5066021;28;20128;-82
2021/12/27 11:26:28;;;;;;;66.40;27.38;;;5.80;99.90;;;;;;5063921;28;20056;-80
2021/12/27 11:29:20;;;;;;;36.05;17.42;;;4.80;99.90;;;;;;5070155;28;20094;-84
2021/12/27 11:32:27;;;;;;;29.15;15.27;;;5.40;99.60;;;;;;5071379;28;20024;-81
2021/12/27 11:35:19;;;;;;;41.10;19.65;;;6.20;99.90;;;;;;5009731;28;20049;-81
2021/12/27 11:38:00;;;;;;;49.17;20.25;;;5.60;99.90;;;;;;4971754;28;20099;-80
2021/12/27 11:41:00;;;;;;;30.30;15.13;;;5.40;99.90;;;;;;4972290;28;20003;-83
2021/12/27 11:44:08;;;;;;;46.40;22.08;;;5.70;99.80;;;;;;4977845;28;20023;-81
2021/12/27 11:46:55;;;;;;;39.90;20.47;;;6.20;99.80;;;;;;4899097;29;20021;-79
2021/12/27 11:49:51;;;;;;;27.77;14.73;;;4.80;99.90;;;;;;4900694;29;20314;-80
2021/12/27 11:52:29;;;;;;;32.53;17.50;;;6.10;99.30;;;;;;4903573;29;20048;-81
2021/12/27 11:55:22;;;;;;;42.50;20.98;;;3.70;98.90;;;;;;4902808;29;20114;-82
2021/12/27 11:57:58;;;;;;;32.47;17.73;;;5.80;99.90;;;;;;4900424;29;20028;-81
2021/12/27 12:00:36;;;;;;;28.23;17.60;;;6.10;99.90;;;;;;4887826;29;20069;-80
2021/12/27 12:03:15;;;;;;;29.77;15.90;;;5.50;99.10;;;;;;4890902;29;20052;-79
2021/12/27 12:06:01;;;;;;;27.55;15.63;;;6.20;99.20;;;;;;4917364;29;20024;-81
2021/12/27 12:08:59;;;;;;;23.13;13.18;;;5.40;98.50;;;;;;4935195;29;20028;-84
2021/12/27 12:12:22;;;;;;;22.77;14.00;;;6.40;99.20;;;;;;4915672;29;20044;-82
2021/12/27 12:15:03;;;;;;;24.25;13.20;;;6.50;98.50;;;;;;4916717;29;20017;-79
2021/12/27 12:18:16;;;;;;;26.98;15.82;;;6.60;98.00;;;;;;4916878;29;20037;-81
2021/12/27 12:24:37;;;;;;;31.15;17.83;;;6.60;99.30;;;;;;4886621;29;20017;-82
2021/12/27 12:32:06;;;;;;;24.10;14.43;;;7.70;97.30;;;;;;4863795;29;20100;-81
2021/12/27 12:35:09;;;;;;;19.42;13.00;;;6.30;98.00;;;;;;4845260;29;20545;-81
2021/12/27 12:38:35;;;;;;;24.13;13.32;;;6.70;98.10;;;;;;4823220;29;20026;-81
2021/12/27 12:41:56;;;;;;;20.98;12.38;;;7.00;97.30;;;;;;4814145;29;20355;-81
2021/12/27 12:48:06;;;;;;;25.23;13.32;;;6.30;97.60;;;;;;4775512;29;20078;-80
2021/12/27 12:53:49;;;;;;;29.13;15.02;;;6.30;98.40;;;;;;4783210;29;20040;-83
2021/12/27 12:56:37;;;;;;;25.00;14.73;;;6.20;98.70;;;;;;4761212;30;20032;-82
2021/12/27 12:59:53;;;;;;;27.70;14.88;;;6.30;97.90;;;;;;4819232;29;20046;-81
2021/12/27 13:02:28;;;;;;;24.23;13.73;;;5.30;97.40;;;;;;4815717;29;20039;-80
2021/12/27 13:05:20;;;;;;;25.75;13.55;;;6.70;98.70;;;;;;4809667;29;20057;-81
2021/12/27 13:07:49;;;;;;;24.92;13.43;;;6.30;98.00;;;;;;4821118;29;20071;-81
2021/12/27 13:14:35;;;;;;;22.73;12.43;;;6.40;98.10;;;;;;4816357;29;20042;-82
2021/12/27 13:17:55;;;;;;;21.10;12.23;;;6.50;97.40;;;;;;4815576;29;20095;-81
2021/12/27 13:20:26;;;;;;;33.30;16.73;;;7.00;97.50;;;;;;4821329;29;20026;-80
2021/12/27 13:23:30;;;;;;;27.23;15.20;;;6.50;98.10;;;;;;4848174;29;20038;-82
2021/12/27 13:26:04;;;;;;;25.48;13.65;;;9.00;97.90;;;;;;4851989;29;20030;-81
2021/12/27 13:29:16;;;;;;;32.08;14.70;;;3.70;96.70;;;;;;4849628;29;20026;-81
2021/12/27 13:31:48;;;;;;;25.98;15.32;;;6.40;97.10;;;;;;4856088;29;20037;-81
2021/12/27 13:34:26;;;;;;;26.48;14.65;;;4.10;96.80;;;;;;4858662;29;20021;-82
2021/12/27 13:37:12;;;;;;;24.92;15.65;;;8.30;97.20;;;;;;4869347;29;20109;-81
2021/12/27 13:40:13;;;;;;;26.77;15.13;;;6.80;97.80;;;;;;4847206;29;20544;-79
2021/12/27 13:43:32;;;;;;;25.45;14.63;;;6.80;97.90;;;;;;4870172;29;20057;-81
2021/12/27 13:46:35;;;;;;;;;;;7.00;98.10;;;;;;4889686;29;20060;-81
2021/12/27 13:49:34;;;;;;;32.10;17.95;;;6.80;97.30;;;;;;4974691;28;19973;-81
2021/12/27 13:53:10;;;;;;;36.63;19.15;;;5.70;97.20;;;;;;5078346;28;20093;-82
2021/12/27 13:56:12;;;;;;;39.28;19.20;;;6.30;97.30;;;;;;5041305;28;20045;-82
2021/12/27 13:58:59;;;;;;;27.00;15.25;;;6.20;97.40;;;;;;4988747;28;20031;-84
2021/12/27 14:02:01;;;;;;;31.00;15.40;;;6.70;98.50;;;;;;4975204;28;20035;-82